X  Close Metar Aviation Weather Data        KSPW Spencer, IA
Temperature
35°F Temperature
17°F Dewpoint
48% Humidity



Wind
16 MPH
26 KM/H
7 M/S
14 KTS



150°
SSE
Current Conditions

Clear Clear
Pressure 1008 (hPa) - 29.76 (inHg)
Visibility 10 (mile) - 16 (km)
Airport
Airport-code KSPW

Location: Spencer, IA
Distance: 12 (mi)

Metar:
METAR KSPW 051053Z AUTO 15014G23KT 10SM CLR 02/M08 A2973 RMK AO2 PK WND 15027/1003 SLP078 T00171083

Time: 12-05-2021 4:53 am CST